Time;durP1;ratioP1;P1;durP2;ratioP2;P2;SDS_P1;SDS_P2;PMS_P1;PMS_P2;Temp;Humidity;BMP_temperature;BMP_pressure;BME280_temperature;BME280_humidity;BME280_pressure;Samples;Min_cycle;Max_cycle;Signal;HPM_P1;HPM_P2
2022/07/20 00:00:47;;;;;;;4.80;3.37;;;22.30;91.30;;;;;;5052044;28;20454;-66
2022/07/20 00:03:14;;;;;;;4.40;2.70;;;22.30;91.00;;;;;;5052320;28;20461;-66
2022/07/20 00:05:43;;;;;;;4.40;2.80;;;22.30;91.30;;;;;;5051926;28;20454;-65
2022/07/20 00:08:11;;;;;;;4.87;2.73;;;22.40;91.70;;;;;;5051932;28;20461;-66
2022/07/20 00:13:23;;;;;;;4.57;2.80;;;22.40;90.90;;;;;;5051825;28;20563;-66
2022/07/20 00:15:51;;;;;;;5.20;2.60;;;22.50;90.00;;;;;;5051953;28;20537;-66
2022/07/20 00:18:19;;;;;;;3.33;2.10;;;22.50;90.20;;;;;;5051722;28;20450;-66
2022/07/20 00:20:47;;;;;;;4.60;2.60;;;22.60;91.20;;;;;;5051875;28;20859;-66
2022/07/20 00:23:14;;;;;;;3.60;2.27;;;22.60;91.20;;;;;;5051905;28;20460;-66
2022/07/20 00:25:41;;;;;;;3.27;2.37;;;22.60;90.70;;;;;;5051537;28;20450;-66
2022/07/20 00:28:09;;;;;;;4.73;2.60;;;22.70;90.50;;;;;;5051599;28;20461;-67
2022/07/20 00:30:36;;;;;;;2.93;2.27;;;22.50;91.40;;;;;;5034000;28;20454;-68
2022/07/20 00:33:03;;;;;;;5.53;2.40;;;22.40;91.20;;;;;;5051628;28;20489;-67
2022/07/20 00:35:30;;;;;;;4.67;2.50;;;22.40;91.70;;;;;;5051547;28;20456;-67
2022/07/20 00:37:58;;;;;;;6.03;3.40;;;22.10;92.70;;;;;;5051462;28;20458;-67
2022/07/20 00:40:26;;;;;;;6.37;2.93;;;22.10;92.50;;;;;;5051647;28;20462;-67
2022/07/20 00:42:53;;;;;;;4.37;2.70;;;21.90;92.80;;;;;;5051635;28;20511;-67
2022/07/20 00:45:20;;;;;;;4.47;2.60;;;22.10;93.40;;;;;;5051612;28;20507;-67
2022/07/20 00:47:47;;;;;;;4.37;2.80;;;22.00;93.90;;;;;;5051208;28;20477;-67
2022/07/20 00:50:15;;;;;;;4.03;2.13;;;21.70;94.30;;;;;;5051196;28;20460;-66
2022/07/20 00:52:43;;;;;;;4.60;2.80;;;21.50;95.00;;;;;;5051014;28;20520;-68
2022/07/20 00:55:11;;;;;;;3.83;2.70;;;21.40;95.30;;;;;;5033681;28;20466;-67
2022/07/20 00:57:38;;;;;;;3.50;2.30;;;21.40;94.90;;;;;;5050973;28;20496;-66
2022/07/20 01:00:07;;;;;;;12.00;2.60;;;21.50;95.60;;;;;;5051173;28;20986;-67
2022/07/20 01:02:35;;;;;;;6.97;2.80;;;21.50;95.10;;;;;;5051125;28;20527;-68
2022/07/20 01:05:02;;;;;;;5.00;3.00;;;21.40;95.70;;;;;;5051004;28;20947;-68
2022/07/20 01:07:29;;;;;;;3.50;2.63;;;21.40;95.70;;;;;;5051012;28;20458;-66
2022/07/20 01:09:57;;;;;;;4.33;2.40;;;21.20;95.40;;;;;;5051257;28;20461;-68
2022/07/20 01:12:25;;;;;;;3.20;2.53;;;21.20;96.00;;;;;;5050881;28;20481;-67
2022/07/20 01:14:55;;;;;;;4.17;2.80;;;21.20;95.60;;;;;;5050858;28;20955;-67
2022/07/20 01:17:23;;;;;;;4.17;2.30;;;21.10;95.80;;;;;;5050923;28;20541;-67
2022/07/20 01:19:50;;;;;;;5.83;2.70;;;21.10;96.50;;;;;;5050970;28;20458;-66
2022/07/20 01:22:21;;;;;;;4.73;2.73;;;20.90;96.50;;;;;;5050869;28;20454;-66
2022/07/20 01:24:48;;;;;;;3.90;2.40;;;20.90;96.90;;;;;;5050821;28;20466;-67
2022/07/20 01:27:15;;;;;;;4.30;2.47;;;20.90;96.80;;;;;;5051090;28;20462;-67
2022/07/20 01:29:42;;;;;;;3.43;2.40;;;21.00;96.60;;;;;;5050720;28;20457;-67
2022/07/20 01:32:10;;;;;;;3.53;2.53;;;21.00;96.40;;;;;;5050835;28;20620;-67
2022/07/20 01:34:37;;;;;;;5.53;3.03;;;21.00;96.80;;;;;;5050766;28;20449;-68
2022/07/20 01:37:04;;;;;;;3.37;2.17;;;20.80;97.00;;;;;;5050946;28;20461;-68
2022/07/20 01:39:32;;;;;;;3.33;2.40;;;20.80;97.60;;;;;;5050895;28;20477;-67
2022/07/20 01:41:59;;;;;;;3.57;2.37;;;20.60;98.00;;;;;;5050788;28;20982;-68
2022/07/20 01:44:26;;;;;;;3.03;2.50;;;20.40;98.00;;;;;;5050656;28;20484;-67
2022/07/20 01:46:53;;;;;;;4.63;2.50;;;20.40;98.00;;;;;;5050699;28;21030;-67
2022/07/20 01:49:21;;;;;;;3.57;2.23;;;20.30;98.00;;;;;;5050526;28;20472;-67
2022/07/20 01:51:48;;;;;;;4.27;2.77;;;20.40;98.00;;;;;;5050600;28;20879;-67
2022/07/20 01:54:18;;;;;;;4.73;2.40;;;20.40;98.00;;;;;;5050596;28;20489;-68
2022/07/20 01:56:47;;;;;;;3.90;2.23;;;20.50;98.00;;;;;;5050432;28;20477;-67
2022/07/20 01:59:14;;;;;;;3.00;2.17;;;20.50;98.00;;;;;;5050508;28;20458;-68
2022/07/20 02:01:41;;;;;;;3.50;2.43;;;20.40;98.00;;;;;;5050466;28;20507;-66
2022/07/20 02:04:08;;;;;;;4.30;2.67;;;20.40;98.00;;;;;;5050466;28;20458;-67
2022/07/20 02:06:35;;;;;;;3.80;2.67;;;20.20;98.00;;;;;;5050454;28;20457;-67
2022/07/20 02:09:03;;;;;;;3.40;2.00;;;20.10;98.00;;;;;;5050384;28;20696;-68
2022/07/20 02:11:30;;;;;;;4.10;2.30;;;20.00;98.00;;;;;;5050519;28;20453;-68
2022/07/20 02:13:59;;;;;;;7.23;2.63;;;20.00;98.00;;;;;;5050316;28;20555;-67
2022/07/20 02:16:26;;;;;;;3.70;2.70;;;19.90;98.00;;;;;;5050964;28;20481;-67
2022/07/20 02:18:56;;;;;;;3.40;2.33;;;19.90;98.00;;;;;;5054274;28;20457;-69
2022/07/20 02:21:24;;;;;;;3.70;2.07;;;20.10;98.00;;;;;;5053998;28;20453;-68
2022/07/20 02:23:52;;;;;;;4.67;2.37;;;20.20;98.00;;;;;;5053819;28;20460;-68
2022/07/20 02:26:19;;;;;;;3.53;2.23;;;20.10;98.00;;;;;;5053998;28;20884;-68
2022/07/20 02:28:47;;;;;;;5.70;2.40;;;20.10;98.00;;;;;;5053761;28;20466;-67
2022/07/20 02:31:18;;;;;;;3.77;2.30;;;20.10;98.00;;;;;;5053944;28;20459;-67
2022/07/20 02:33:46;;;;;;;2.73;1.87;;;20.00;98.00;;;;;;5053785;28;20512;-67
2022/07/20 02:36:14;;;;;;;3.07;2.17;;;19.90;98.00;;;;;;5053791;28;20454;-68
2022/07/20 02:38:41;;;;;;;2.40;2.07;;;19.70;98.00;;;;;;5053848;28;20461;-67
2022/07/20 02:41:08;;;;;;;9.20;2.70;;;19.60;98.00;;;;;;5053738;28;20458;-67
2022/07/20 02:43:35;;;;;;;3.67;2.10;;;19.60;98.00;;;;;;5053704;28;20461;-67
2022/07/20 02:46:03;;;;;;;2.73;2.00;;;19.60;98.00;;;;;;5053546;28;21006;-68
2022/07/20 02:48:32;;;;;;;6.40;2.53;;;19.70;98.00;;;;;;5053390;28;20523;-67
2022/07/20 02:50:59;;;;;;;3.30;2.30;;;19.90;98.00;;;;;;5053481;28;20458;-68
2022/07/20 02:53:26;;;;;;;4.23;2.50;;;19.90;98.00;;;;;;5053282;28;20489;-68
2022/07/20 02:55:53;;;;;;;3.70;2.30;;;19.90;98.00;;;;;;5053178;28;20458;-67
2022/07/20 02:58:20;;;;;;;2.90;2.03;;;19.80;98.00;;;;;;5053380;28;20458;-67
2022/07/20 03:00:47;;;;;;;3.17;2.30;;;19.70;98.00;;;;;;5053313;28;20468;-67
2022/07/20 03:03:14;;;;;;;3.43;2.03;;;19.80;98.00;;;;;;5053333;28;20472;-66
2022/07/20 03:05:43;;;;;;;3.90;2.17;;;19.60;98.00;;;;;;5053025;28;20453;-68
2022/07/20 03:08:13;;;;;;;4.00;2.37;;;19.60;98.00;;;;;;5052938;28;20940;-66
2022/07/20 03:10:40;;;;;;;4.63;2.50;;;19.30;98.00;;;;;;5035500;28;20454;-68
2022/07/20 03:13:07;;;;;;;3.70;2.23;;;19.30;98.00;;;;;;5052952;28;20481;-67
2022/07/20 03:15:34;;;;;;;3.60;2.20;;;19.20;98.00;;;;;;5052985;28;20457;-68
2022/07/20 03:18:02;;;;;;;2.00;1.80;;;19.30;98.00;;;;;;5052909;28;20885;-67
2022/07/20 03:20:31;;;;;;;3.10;2.23;;;19.40;98.00;;;;;;5052867;28;20457;-66
2022/07/20 03:23:02;;;;;;;2.40;1.73;;;19.30;98.00;;;;;;5052722;28;20489;-68
2022/07/20 03:25:29;;;;;;;2.90;2.07;;;19.40;98.00;;;;;;5052797;28;20506;-66
2022/07/20 03:27:58;;;;;;;3.37;1.90;;;19.20;98.00;;;;;;5052874;28;21009;-67
2022/07/20 03:30:27;;;;;;;3.40;2.27;;;19.10;98.00;;;;;;5052728;28;20457;-67
2022/07/20 03:32:55;;;;;;;4.57;1.93;;;19.10;98.00;;;;;;5052639;28;20450;-67
2022/07/20 03:35:22;;;;;;;3.00;2.10;;;19.10;98.00;;;;;;5052577;28;20462;-67
2022/07/20 03:37:50;;;;;;;7.30;2.30;;;19.00;98.00;;;;;;5052672;28;20466;-67
2022/07/20 03:40:18;;;;;;;3.50;2.50;;;19.00;98.00;;;;;;5052907;28;20461;-67
2022/07/20 03:42:45;;;;;;;5.50;2.40;;;19.00;98.00;;;;;;5052716;28;20940;-66
2022/07/20 03:45:12;;;;;;;3.20;2.00;;;19.10;98.00;;;;;;5052537;28;20836;-68
2022/07/20 03:47:40;;;;;;;3.67;2.30;;;19.10;98.00;;;;;;5052451;28;20833;-67
2022/07/20 03:50:07;;;;;;;3.63;2.10;;;19.40;98.00;;;;;;5034590;28;20955;-67
2022/07/20 03:52:35;;;;;;;3.33;2.07;;;19.20;98.00;;;;;;5052351;28;20454;-67
2022/07/20 03:55:02;;;;;;;4.07;2.47;;;19.10;98.00;;;;;;5052195;28;20833;-67
2022/07/20 03:57:30;;;;;;;3.10;2.00;;;19.10;98.00;;;;;;5052071;28;20453;-68
2022/07/20 03:59:57;;;;;;;3.47;2.00;;;19.10;98.00;;;;;;5052216;28;20464;-68
2022/07/20 04:02:25;;;;;;;4.97;2.60;;;18.90;98.00;;;;;;5051860;28;20488;-67
2022/07/20 04:04:52;;;;;;;6.63;2.07;;;18.80;98.00;;;;;;5051787;28;20458;-67
2022/07/20 04:07:19;;;;;;;5.13;2.53;;;18.90;98.00;;;;;;5034316;28;20453;-66
2022/07/20 04:09:49;;;;;;;4.07;2.37;;;18.90;98.00;;;;;;5051847;28;20458;-67
2022/07/20 04:12:17;;;;;;;2.67;1.90;;;18.70;98.00;;;;;;5051473;28;20457;-67
2022/07/20 04:14:47;;;;;;;4.17;2.50;;;18.70;98.00;;;;;;5051668;28;20470;-67
2022/07/20 04:17:15;;;;;;;2.50;1.83;;;18.80;98.00;;;;;;5052082;28;20466;-67
2022/07/20 04:19:42;;;;;;;2.70;1.80;;;18.90;98.00;;;;;;5051574;28;20450;-68
2022/07/20 04:22:09;;;;;;;8.50;2.70;;;18.80;98.00;;;;;;5051792;28;20465;-67
2022/07/20 04:24:37;;;;;;;2.10;1.87;;;18.80;98.00;;;;;;5051633;28;20450;-68
2022/07/20 04:27:05;;;;;;;3.20;2.00;;;18.70;98.00;;;;;;5051603;28;20457;-68
2022/07/20 04:29:33;;;;;;;3.70;2.10;;;18.70;98.00;;;;;;5033811;28;20461;-67
2022/07/20 04:32:01;;;;;;;3.37;2.27;;;18.80;98.00;;;;;;5051794;28;20844;-67
2022/07/20 04:34:29;;;;;;;2.83;2.00;;;18.90;98.00;;;;;;5051395;28;20477;-67
2022/07/20 04:36:56;;;;;;;6.13;2.50;;;18.90;98.00;;;;;;5034124;28;20453;-68
2022/07/20 04:39:23;;;;;;;5.70;2.13;;;19.10;98.00;;;;;;5051202;28;20455;-67
2022/07/20 04:41:50;;;;;;;4.10;2.43;;;19.10;98.00;;;;;;5033959;28;20458;-67
2022/07/20 04:44:18;;;;;;;2.80;2.00;;;19.00;98.00;;;;;;5051542;28;20453;-68
2022/07/20 04:46:45;;;;;;;2.57;1.77;;;19.10;98.00;;;;;;5051373;28;20455;-67
2022/07/20 04:49:14;;;;;;;3.03;2.20;;;18.90;98.00;;;;;;5051349;28;20556;-67
2022/07/20 04:51:42;;;;;;;3.70;2.47;;;19.10;98.00;;;;;;5051002;28;20471;-67
2022/07/20 04:54:09;;;;;;;3.77;2.20;;;19.00;98.00;;;;;;5051101;28;20489;-67
2022/07/20 04:56:36;;;;;;;2.67;1.80;;;18.90;98.00;;;;;;5051022;28;20874;-67
2022/07/20 04:59:03;;;;;;;3.07;2.43;;;18.80;98.00;;;;;;5051294;28;20454;-67
2022/07/20 05:01:30;;;;;;;4.63;2.80;;;18.80;98.00;;;;;;5051166;28;20461;-67
2022/07/20 05:03:57;;;;;;;3.10;2.17;;;19.00;98.00;;;;;;5033583;28;20445;-66
2022/07/20 05:06:27;;;;;;;3.60;2.57;;;19.10;98.00;;;;;;5051032;28;20523;-67
2022/07/20 05:08:54;;;;;;;6.40;2.50;;;19.10;98.00;;;;;;5033054;28;20454;-67
2022/07/20 05:11:21;;;;;;;2.90;1.87;;;19.10;98.00;;;;;;5050992;28;20817;-67
2022/07/20 05:13:48;;;;;;;3.70;2.47;;;19.10;98.00;;;;;;5050989;28;20897;-67
2022/07/20 05:16:16;;;;;;;3.17;2.13;;;19.10;98.00;;;;;;5050907;28;20803;-67
2022/07/20 05:18:43;;;;;;;3.10;2.07;;;19.10;98.00;;;;;;5050894;28;20825;-68
2022/07/20 05:21:10;;;;;;;3.00;2.13;;;19.30;98.00;;;;;;5050761;28;20446;-67
2022/07/20 05:23:39;;;;;;;2.93;1.80;;;19.40;98.00;;;;;;5050724;28;20460;-68
2022/07/20 05:26:06;;;;;;;2.90;2.13;;;19.70;98.00;;;;;;5033109;28;20450;-68
2022/07/20 05:28:33;;;;;;;5.10;3.03;;;19.90;98.00;;;;;;5050862;28;20962;-67
2022/07/20 05:31:01;;;;;;;4.30;2.43;;;20.10;98.00;;;;;;5050904;28;20472;-67
2022/07/20 05:33:28;;;;;;;3.80;2.60;;;20.40;98.00;;;;;;5050732;28;20457;-67
2022/07/20 05:35:55;;;;;;;5.07;3.00;;;20.50;98.00;;;;;;5050913;28;20464;-67
2022/07/20 05:38:22;;;;;;;2.37;2.20;;;20.60;98.00;;;;;;5033154;28;20465;-66
2022/07/20 05:40:51;;;;;;;4.07;2.47;;;20.70;98.00;;;;;;5051127;28;20466;-67
2022/07/20 05:43:18;;;;;;;4.30;2.53;;;20.80;98.00;;;;;;5050825;28;20462;-67
2022/07/20 05:45:45;;;;;;;5.60;2.80;;;20.90;98.00;;;;;;5050689;28;20465;-67
2022/07/20 05:48:12;;;;;;;6.17;2.60;;;21.00;98.00;;;;;;5050690;28;20449;-68
2022/07/20 05:50:40;;;;;;;4.97;2.50;;;21.00;98.00;;;;;;5050587;28;21013;-67
2022/07/20 05:53:08;;;;;;;4.43;2.57;;;21.00;98.00;;;;;;5054018;28;20491;-67
2022/07/20 05:55:36;;;;;;;4.53;2.60;;;21.10;98.00;;;;;;5054114;28;20485;-62
2022/07/20 05:58:06;;;;;;;4.57;2.73;;;21.20;98.00;;;;;;5054606;28;20807;-61
2022/07/20 06:00:35;;;;;;;5.70;2.87;;;21.20;98.00;;;;;;5054288;28;20462;-61
2022/07/20 06:03:02;;;;;;;4.87;3.20;;;21.30;98.00;;;;;;5054431;28;20453;-62
2022/07/20 06:05:30;;;;;;;6.63;3.13;;;21.40;98.00;;;;;;5054142;28;20970;-62
2022/07/20 06:08:00;;;;;;;4.97;2.53;;;21.40;98.00;;;;;;5054209;28;20952;-60
2022/07/20 06:10:28;;;;;;;7.20;3.50;;;21.50;98.00;;;;;;5054052;28;20461;-62
2022/07/20 06:12:55;;;;;;;2.67;1.83;;;21.50;98.00;;;;;;5054086;28;20454;-66
2022/07/20 06:15:25;;;;;;;2.63;2.10;;;21.80;98.00;;;;;;5053912;28;20511;-64
2022/07/20 06:17:53;;;;;;;3.60;2.50;;;22.20;98.00;;;;;;5053915;28;20461;-66
2022/07/20 06:20:21;;;;;;;4.47;2.87;;;22.60;98.00;;;;;;5053877;28;20464;-67
2022/07/20 06:22:48;;;;;;;4.03;2.10;;;22.80;98.00;;;;;;5054023;28;20477;-65
2022/07/20 06:25:18;;;;;;;6.20;3.17;;;23.10;98.00;;;;;;5053957;28;20461;-64
2022/07/20 06:27:45;;;;;;;4.37;2.70;;;23.40;97.20;;;;;;5053732;28;20457;-66
2022/07/20 06:30:14;;;;;;;3.13;2.40;;;23.70;96.10;;;;;;5053783;28;20454;-65
2022/07/20 06:32:43;;;;;;;5.80;2.97;;;23.90;95.60;;;;;;5053821;28;20944;-65
2022/07/20 06:35:11;;;;;;;3.00;2.57;;;24.10;94.80;;;;;;5054105;28;20529;-65
2022/07/20 06:37:39;;;;;;;4.17;2.67;;;24.30;94.40;;;;;;5054021;28;20454;-65
2022/07/20 06:40:07;;;;;;;3.87;2.53;;;24.40;93.70;;;;;;5053820;28;20465;-65
2022/07/20 06:42:34;;;;;;;3.57;2.90;;;24.60;93.40;;;;;;5053640;28;20968;-66
2022/07/20 06:45:02;;;;;;;4.27;2.67;;;24.70;93.00;;;;;;5053524;28;20461;-66
2022/07/20 06:47:29;;;;;;;4.83;2.70;;;24.70;92.60;;;;;;5053415;28;20457;-64
2022/07/20 06:49:57;;;;;;;6.83;3.00;;;24.90;92.40;;;;;;5053435;28;20454;-67
2022/07/20 06:52:24;;;;;;;5.80;3.43;;;25.00;92.00;;;;;;5053346;28;20995;-65
2022/07/20 06:54:52;;;;;;;7.10;3.23;;;25.10;91.60;;;;;;5053261;28;20482;-65
2022/07/20 06:57:19;;;;;;;4.77;2.93;;;25.20;91.10;;;;;;5053038;28;20605;-65
2022/07/20 06:59:46;;;;;;;3.83;2.53;;;25.20;90.20;;;;;;5053226;28;20736;-65
2022/07/20 07:02:13;;;;;;;3.73;2.53;;;25.30;90.90;;;;;;5052844;28;20461;-65
2022/07/20 07:04:40;;;;;;;3.90;2.40;;;25.40;90.60;;;;;;5053101;28;20461;-65
2022/07/20 07:07:09;;;;;;;5.07;2.70;;;25.50;90.40;;;;;;5018004;28;20467;-65
2022/07/20 07:09:37;;;;;;;4.80;3.17;;;25.60;90.90;;;;;;5040543;28;20458;-65
2022/07/20 07:12:05;;;;;;;4.60;2.60;;;25.70;89.90;;;;;;5047020;28;20979;-64
2022/07/20 07:14:34;;;;;;;11.00;3.50;;;25.80;90.00;;;;;;5042185;28;21016;-67
2022/07/20 07:17:01;;;;;;;3.90;2.63;;;25.80;89.80;;;;;;5015946;28;20463;-65
2022/07/20 07:19:29;;;;;;;3.10;2.40;;;25.80;89.10;;;;;;5033123;28;20871;-66
2022/07/20 07:21:56;;;;;;;4.50;3.07;;;25.90;88.50;;;;;;5015560;28;20483;-61
2022/07/20 07:24:24;;;;;;;4.83;3.20;;;26.00;86.40;;;;;;5032837;28;20485;-62
2022/07/20 07:26:52;;;;;;;3.80;2.60;;;26.00;86.20;;;;;;5038059;28;20461;-61
2022/07/20 07:29:20;;;;;;;5.10;2.70;;;25.90;86.20;;;;;;5035571;28;20459;-61
2022/07/20 07:31:47;;;;;;;5.03;3.10;;;25.90;86.30;;;;;;5032818;28;20494;-62
2022/07/20 07:34:15;;;;;;;3.93;2.53;;;25.90;86.50;;;;;;5032829;28;20462;-62
2022/07/20 07:36:42;;;;;;;6.07;2.90;;;26.10;86.10;;;;;;5032817;28;20811;-62
2022/07/20 07:39:09;;;;;;;4.10;2.70;;;26.20;85.20;;;;;;5032460;28;20470;-61
2022/07/20 07:41:37;;;;;;;9.00;3.20;;;26.30;85.60;;;;;;5033008;28;20481;-61
2022/07/20 07:44:05;;;;;;;4.40;2.90;;;26.50;85.10;;;;;;5032877;28;20474;-59
2022/07/20 07:46:32;;;;;;;4.60;3.00;;;26.60;84.50;;;;;;5032492;28;20794;-61
2022/07/20 07:48:59;;;;;;;3.97;2.83;;;26.70;84.30;;;;;;5015209;28;21036;-61
2022/07/20 07:51:26;;;;;;;3.97;2.70;;;26.80;84.40;;;;;;5032504;28;20824;-61
2022/07/20 07:53:53;;;;;;;6.03;3.00;;;27.00;85.10;;;;;;5032416;28;20455;-60
2022/07/20 07:56:20;;;;;;;8.33;2.97;;;27.10;83.50;;;;;;5032079;28;20498;-61
2022/07/20 07:58:50;;;;;;;3.93;2.53;;;27.10;83.40;;;;;;5032202;28;20976;-61
2022/07/20 08:01:17;;;;;;;4.77;3.10;;;27.20;84.00;;;;;;5032409;28;20797;-61
2022/07/20 08:03:45;;;;;;;4.20;2.70;;;27.30;82.60;;;;;;5032256;28;20454;-62
2022/07/20 08:06:12;;;;;;;3.93;2.97;;;27.40;83.10;;;;;;5032155;28;20470;-61
2022/07/20 08:08:39;;;;;;;12.30;3.70;;;27.50;83.00;;;;;;5031822;28;20494;-62
2022/07/20 08:11:06;;;;;;;5.33;3.00;;;27.60;82.80;;;;;;5031930;28;20457;-61
2022/07/20 08:13:33;;;;;;;4.00;2.90;;;27.60;83.00;;;;;;5014283;28;20469;-63
2022/07/20 08:16:03;;;;;;;4.60;2.80;;;27.70;83.40;;;;;;5031497;28;20486;-61
2022/07/20 08:18:30;;;;;;;5.47;3.40;;;27.90;83.00;;;;;;5031762;28;20458;-61
2022/07/20 08:20:57;;;;;;;3.67;2.80;;;28.10;82.50;;;;;;5031871;28;20454;-62
2022/07/20 08:23:24;;;;;;;4.83;3.17;;;28.20;81.80;;;;;;5031922;28;20473;-60
2022/07/20 08:25:51;;;;;;;4.47;2.77;;;28.40;81.60;;;;;;5032026;28;20459;-62
2022/07/20 08:28:22;;;;;;;6.90;3.00;;;28.50;80.70;;;;;;5031733;28;20455;-62
2022/07/20 08:30:51;;;;;;;4.63;3.00;;;28.60;80.80;;;;;;4998471;28;20459;-62
2022/07/20 08:33:21;;;;;;;3.40;2.63;;;28.60;80.40;;;;;;5031675;28;20474;-62
2022/07/20 08:35:48;;;;;;;4.50;2.80;;;28.70;81.00;;;;;;5031666;28;20483;-62
2022/07/20 08:38:15;;;;;;;6.50;3.00;;;28.80;80.80;;;;;;5031623;28;20462;-62
2022/07/20 08:40:42;;;;;;;4.37;2.90;;;28.90;80.30;;;;;;5031583;28;20454;-62
2022/07/20 08:43:09;;;;;;;7.30;3.63;;;29.10;80.50;;;;;;5031900;28;20451;-60
2022/07/20 08:45:37;;;;;;;5.33;2.97;;;29.30;79.90;;;;;;5031337;28;20459;-61
2022/07/20 08:48:08;;;;;;;5.40;2.77;;;29.50;79.40;;;;;;5014193;28;20465;-61
2022/07/20 08:50:36;;;;;;;4.13;2.83;;;29.70;79.10;;;;;;5031512;28;20454;-61
2022/07/20 08:53:04;;;;;;;4.73;2.97;;;29.80;78.80;;;;;;5031417;28;20968;-61
2022/07/20 08:55:39;;;;;;;7.70;3.60;;;29.90;78.80;;;;;;5031028;28;20846;-61
2022/07/20 08:58:06;;;;;;;5.40;3.17;;;30.00;79.10;;;;;;5031372;28;20613;-62
2022/07/20 09:00:33;;;;;;;5.80;3.33;;;30.20;78.00;;;;;;5030918;28;20459;-61
2022/07/20 09:03:03;;;;;;;4.30;3.07;;;30.40;77.90;;;;;;5031370;28;20458;-62
2022/07/20 09:05:32;;;;;;;9.43;3.13;;;30.60;77.20;;;;;;5031119;28;20450;-61
2022/07/20 09:08:01;;;;;;;7.53;3.27;;;30.80;77.80;;;;;;5031250;28;20465;-61
2022/07/20 09:10:30;;;;;;;4.27;2.87;;;30.90;77.10;;;;;;5013471;28;20459;-60
2022/07/20 09:13:00;;;;;;;4.57;3.30;;;30.90;76.60;;;;;;5031022;28;20462;-61
2022/07/20 09:15:34;;;;;;;5.50;3.50;;;31.00;76.80;;;;;;5030831;28;21069;-63
2022/07/20 09:18:11;;;;;;;5.33;3.17;;;31.10;76.60;;;;;;5031101;28;20463;-62
2022/07/20 09:20:39;;;;;;;4.47;3.43;;;31.10;76.30;;;;;;5030506;28;20454;-61
2022/07/20 09:23:13;;;;;;;5.80;3.30;;;31.20;75.10;;;;;;5031013;28;20462;-62
2022/07/20 09:25:51;;;;;;;5.30;3.40;;;31.30;74.90;;;;;;5032023;28;20466;-63
2022/07/20 09:28:19;;;;;;;5.30;3.47;;;31.50;75.70;;;;;;5035245;28;20459;-63
2022/07/20 09:30:53;;;;;;;5.57;3.50;;;31.80;76.10;;;;;;5035128;28;20454;-62
2022/07/20 09:33:28;;;;;;;4.97;3.63;;;31.90;74.60;;;;;;5035064;28;20470;-61
2022/07/20 09:35:57;;;;;;;5.73;3.27;;;32.10;73.70;;;;;;5034941;28;20513;-61
2022/07/20 09:38:34;;;;;;;4.27;3.13;;;32.20;72.80;;;;;;5017536;28;20466;-62
2022/07/20 09:41:02;;;;;;;7.20;3.77;;;32.20;72.00;;;;;;5035236;28;20466;-62
2022/07/20 09:43:32;;;;;;;5.70;3.53;;;32.30;72.40;;;;;;5035038;28;20537;-62
2022/07/20 09:46:13;;;;;;;4.93;3.40;;;32.40;71.30;;;;;;5035107;28;20459;-62
2022/07/20 09:48:43;;;;;;;5.77;3.90;;;32.60;69.90;;;;;;5034950;28;21083;-62
2022/07/20 09:51:25;;;;;;;8.17;3.07;;;32.70;68.50;;;;;;5035071;28;20463;-62
2022/07/20 09:53:56;;;;;;;4.37;3.00;;;32.90;69.00;;;;;;5034698;28;20467;-63
2022/07/20 09:56:25;;;;;;;6.47;3.10;;;33.00;70.50;;;;;;5034546;28;20487;-63
2022/07/20 09:58:54;;;;;;;4.00;2.97;;;33.10;68.20;;;;;;5034464;28;20462;-63
2022/07/20 10:01:23;;;;;;;5.00;3.00;;;33.30;65.60;;;;;;5034581;28;20459;-62
2022/07/20 10:03:54;;;;;;;4.20;3.23;;;33.50;65.30;;;;;;5034405;28;20466;-62
2022/07/20 10:06:22;;;;;;;5.23;3.20;;;33.60;65.60;;;;;;5034436;28;20458;-63
2022/07/20 10:08:50;;;;;;;4.20;2.90;;;33.70;64.60;;;;;;5034140;28;20464;-63
2022/07/20 10:11:21;;;;;;;4.57;2.83;;;33.80;64.10;;;;;;5034178;28;20461;-63
2022/07/20 10:13:52;;;;;;;5.77;3.50;;;33.90;63.30;;;;;;5033855;28;20948;-62
2022/07/20 10:16:28;;;;;;;4.93;3.20;;;34.00;63.30;;;;;;5034133;28;21003;-63
2022/07/20 10:18:56;;;;;;;4.73;3.10;;;34.00;62.80;;;;;;5034245;28;20828;-63
2022/07/20 10:21:34;;;;;;;5.00;3.03;;;34.10;64.50;;;;;;5375695;22;20496;-62
2022/07/20 10:24:25;;;;;;;3.47;2.90;;;34.10;63.10;;;;;;5042016;28;20873;-63
2022/07/20 10:26:56;;;;;;;6.20;3.67;;;34.20;63.00;;;;;;5014330;28;20521;-63
2022/07/20 10:29:29;;;;;;;4.60;3.10;;;34.30;63.70;;;;;;5014080;28;21010;-63
2022/07/20 10:31:59;;;;;;;6.43;3.67;;;34.40;63.60;;;;;;5014603;28;20463;-63
2022/07/20 10:34:37;;;;;;;4.47;3.20;;;34.50;63.10;;;;;;5015026;28;20796;-63
2022/07/20 10:37:24;;;;;;;5.40;3.33;;;34.60;61.80;;;;;;5014419;28;21200;-63
2022/07/20 10:39:52;;;;;;;6.30;2.80;;;34.80;62.70;;;;;;5014799;28;21009;-63
2022/07/20 10:42:34;;;;;;;4.33;3.40;;;35.00;60.80;;;;;;5013700;28;20498;-62
2022/07/20 10:45:30;;;;;;;6.00;3.47;;;35.30;63.50;;;;;;5028741;28;20462;-63
2022/07/20 10:48:00;;;;;;;5.00;3.37;;;35.50;61.40;;;;;;5014827;28;20459;-63
2022/07/20 10:50:31;;;;;;;6.50;3.50;;;35.70;59.30;;;;;;5014375;28;20462;-63
2022/07/20 10:53:00;;;;;;;8.00;4.47;;;35.90;59.50;;;;;;5014577;28;20495;-64
2022/07/20 10:55:51;;;;;;;4.27;2.97;;;36.10;59.50;;;;;;5014297;28;20487;-63
2022/07/20 10:58:22;;;;;;;6.17;3.70;;;36.30;57.80;;;;;;5014256;28;20885;-63
2022/07/20 11:00:51;;;;;;;5.00;3.73;;;36.40;58.70;;;;;;5014332;28;20455;-63
2022/07/20 11:03:20;;;;;;;5.30;3.73;;;36.50;57.90;;;;;;5014201;28;20941;-63
2022/07/20 11:05:49;;;;;;;4.50;3.13;;;36.60;57.00;;;;;;5014297;28;20467;-63
2022/07/20 11:08:16;;;;;;;4.43;3.30;;;36.60;57.90;;;;;;5012877;28;20836;-63
2022/07/20 11:10:44;;;;;;;4.37;3.20;;;36.70;57.30;;;;;;5012857;28;20965;-63
2022/07/20 11:13:13;;;;;;;4.80;3.60;;;36.70;56.30;;;;;;5014009;28;20469;-64
2022/07/20 11:15:45;;;;;;;5.20;3.60;;;36.70;57.20;;;;;;5013862;28;20487;-63
2022/07/20 11:18:14;;;;;;;4.30;2.90;;;36.60;58.10;;;;;;5012948;28;20463;-63
2022/07/20 11:20:52;;;;;;;5.00;3.60;;;36.40;58.20;;;;;;5013768;28;20514;-64
2022/07/20 11:23:21;;;;;;;5.47;3.53;;;36.50;58.40;;;;;;5014104;28;20825;-63
2022/07/20 11:25:52;;;;;;;5.43;3.40;;;36.70;58.40;;;;;;5012463;28;20499;-63
2022/07/20 11:28:21;;;;;;;9.50;3.67;;;36.90;57.70;;;;;;5013742;28;20467;-63
2022/07/20 11:30:52;;;;;;;5.57;3.53;;;37.00;58.20;;;;;;5013891;28;20582;-63
2022/07/20 11:33:28;;;;;;;5.43;3.77;;;37.20;57.50;;;;;;5014047;28;20459;-63
2022/07/20 11:35:56;;;;;;;10.50;3.90;;;37.20;58.00;;;;;;5013460;28;20493;-63
2022/07/20 11:38:24;;;;;;;5.00;3.50;;;37.20;56.60;;;;;;5013970;28;20466;-63
2022/07/20 11:40:59;;;;;;;5.67;3.60;;;37.20;55.90;;;;;;5013710;28;20460;-63
2022/07/20 11:43:27;;;;;;;9.03;3.53;;;37.30;55.50;;;;;;5013911;28;20465;-63
2022/07/20 11:46:09;;;;;;;4.97;3.60;;;37.40;56.20;;;;;;5013610;28;20547;-63
2022/07/20 11:48:37;;;;;;;4.70;3.27;;;37.40;57.30;;;;;;5013157;28;20459;-62
2022/07/20 11:51:04;;;;;;;4.53;3.67;;;37.30;55.60;;;;;;5012708;28;20837;-63
2022/07/20 11:53:33;;;;;;;5.60;3.80;;;37.30;56.00;;;;;;5013566;28;20494;-62
2022/07/20 11:56:02;;;;;;;4.90;3.73;;;37.30;56.30;;;;;;5013277;28;20491;-62
2022/07/20 11:58:31;;;;;;;6.47;3.87;;;37.50;56.20;;;;;;5013223;28;20455;-62
2022/07/20 12:01:01;;;;;;;6.67;4.60;;;37.40;56.30;;;;;;5013314;28;20466;-62
2022/07/20 12:03:31;;;;;;;5.63;3.87;;;37.60;56.70;;;;;;4995707;28;21121;-62
2022/07/20 12:06:02;;;;;;;4.80;3.23;;;37.70;58.00;;;;;;5013222;28;20456;-62
2022/07/20 12:08:29;;;;;;;6.67;4.40;;;37.80;57.50;;;;;;5013199;28;20467;-65
2022/07/20 12:10:57;;;;;;;4.17;3.50;;;38.00;55.80;;;;;;5012907;28;20455;-63
2022/07/20 12:13:31;;;;;;;6.73;4.10;;;38.10;54.80;;;;;;5012968;28;20467;-62
2022/07/20 12:16:02;;;;;;;6.53;3.93;;;38.10;56.20;;;;;;5016437;28;20479;-62
2022/07/20 12:18:42;;;;;;;5.03;3.83;;;38.00;56.70;;;;;;5032687;28;20463;-62
2022/07/20 12:21:11;;;;;;;5.37;3.80;;;38.10;56.40;;;;;;5032336;28;20474;-62
2022/07/20 12:23:39;;;;;;;5.00;3.70;;;38.20;56.40;;;;;;5032470;28;20458;-62
2022/07/20 12:26:27;;;;;;;4.87;3.70;;;38.30;54.30;;;;;;5032164;28;20987;-63
2022/07/20 12:28:55;;;;;;;6.70;4.47;;;38.20;55.50;;;;;;5032332;28;20455;-62
2022/07/20 12:31:25;;;;;;;4.67;3.40;;;38.30;55.90;;;;;;5032671;28;20545;-64
2022/07/20 12:34:08;;;;;;;4.30;3.57;;;38.40;53.80;;;;;;5032831;28;20469;-63
2022/07/20 12:36:47;;;;;;;4.83;3.60;;;38.60;54.80;;;;;;5032443;28;20571;-63
2022/07/20 12:39:17;;;;;;;5.83;3.50;;;38.70;54.50;;;;;;5032413;28;20467;-62
2022/07/20 12:41:44;;;;;;;5.00;3.40;;;38.80;55.70;;;;;;5032442;28;20848;-63
2022/07/20 12:44:25;;;;;;;4.87;3.70;;;39.00;55.80;;;;;;5032551;28;20471;-61
2022/07/20 12:46:55;;;;;;;5.87;3.50;;;39.30;54.50;;;;;;5032724;28;20504;-64
2022/07/20 12:49:23;;;;;;;7.27;4.57;;;39.40;54.30;;;;;;5032249;28;20462;-62
2022/07/20 12:51:51;;;;;;;6.90;4.37;;;39.40;53.70;;;;;;5032316;28;20817;-62
2022/07/20 12:54:19;;;;;;;6.63;3.70;;;39.40;53.70;;;;;;5032165;28;20450;-63
2022/07/20 12:56:48;;;;;;;6.50;4.40;;;39.20;54.30;;;;;;5032129;28;20491;-63